createdAt,value
2022-08-19T00:00:07.479Z,17.75
2022-08-19T00:02:34.259Z,18.48
2022-08-19T00:05:00.998Z,14.23
2022-08-19T00:07:27.826Z,15.20
2022-08-19T00:09:54.762Z,13.88
2022-08-19T00:12:24.266Z,14.00
2022-08-19T00:14:50.981Z,18.80
2022-08-19T00:17:17.627Z,15.70
2022-08-19T00:19:44.299Z,13.98
2022-08-19T00:22:11.027Z,14.73
2022-08-19T00:24:39.402Z,15.07
2022-08-19T00:27:25.981Z,14.82
2022-08-19T00:29:53.046Z,11.77
2022-08-19T00:32:20.175Z,11.57
2022-08-19T00:34:47.594Z,17.55
2022-08-19T00:37:14.294Z,16.73
2022-08-19T00:39:41.026Z,14.48
2022-08-19T00:42:07.752Z,16.75
2022-08-19T00:44:34.399Z,15.85
2022-08-19T00:47:01.251Z,14.95
2022-08-19T00:49:37.528Z,16.27
2022-08-19T00:52:15.013Z,17.77
2022-08-19T00:54:43.880Z,19.80
2022-08-19T00:57:15.921Z,16.83
2022-08-19T01:00:00.499Z,21.90
2022-08-19T01:02:31.889Z,15.05
2022-08-19T01:05:00.187Z,15.80
2022-08-19T01:07:26.957Z,18.58
2022-08-19T01:09:53.632Z,13.02
2022-08-19T01:12:21.219Z,16.75
2022-08-19T01:14:48.982Z,18.50
2022-08-19T01:17:17.177Z,19.98
2022-08-19T01:19:44.907Z,16.50
2022-08-19T01:22:31.414Z,17.65
2022-08-19T01:25:00.390Z,20.13
2022-08-19T01:27:29.593Z,21.20
2022-08-19T01:30:08.806Z,22.27
2022-08-19T01:32:35.905Z,24.27
2022-08-19T01:35:04.607Z,22.60
2022-08-19T01:37:43.391Z,26.65
2022-08-19T01:40:11.051Z,25.60
2022-08-19T01:42:38.004Z,24.50
2022-08-19T01:45:06.026Z,31.05
2022-08-19T01:47:32.668Z,24.73
2022-08-19T01:49:59.487Z,24.05
2022-08-19T01:52:26.107Z,24.90
2022-08-19T01:54:52.819Z,25.73
2022-08-19T01:57:19.678Z,23.50
2022-08-19T01:59:46.698Z,21.02
2022-08-19T02:02:13.387Z,23.07
2022-08-19T02:04:40.290Z,24.83
2022-08-19T02:07:08.963Z,20.48
2022-08-19T02:09:36.298Z,26.83
2022-08-19T02:12:03.606Z,28.27
2022-08-19T02:14:30.263Z,25.80
2022-08-19T02:16:57.015Z,31.60
2022-08-19T02:19:23.619Z,37.85
2022-08-19T02:21:50.273Z,30.60
2022-08-19T02:24:17.093Z,40.65
2022-08-19T02:26:43.773Z,38.15
2022-08-19T02:29:10.584Z,38.42
2022-08-19T02:31:37.349Z,44.63
2022-08-19T02:34:04.172Z,31.65
2022-08-19T02:36:31.308Z,42.55
2022-08-19T02:38:58.129Z,45.45
2022-08-19T02:41:27.896Z,47.72
2022-08-19T02:44:28.554Z,47.28
2022-08-19T02:46:44.349Z,48.40
2022-08-19T02:49:10.995Z,51.78
2022-08-19T02:51:41.276Z,46.72
2022-08-19T02:54:09.890Z,48.50
2022-08-19T02:56:38.732Z,50.83
2022-08-19T02:59:09.273Z,46.33
2022-08-19T03:01:40.684Z,46.13
2022-08-19T03:04:09.058Z,50.90
2022-08-19T03:06:40.568Z,46.30
2022-08-19T03:09:07.505Z,53.78
2022-08-19T03:11:34.754Z,44.42
2022-08-19T03:14:02.401Z,53.15
2022-08-19T03:16:33.521Z,53.30
2022-08-19T03:19:02.125Z,51.85
2022-08-19T03:21:32.004Z,49.33
2022-08-19T03:24:01.302Z,50.15
2022-08-19T03:26:28.477Z,57.47
2022-08-19T03:28:58.098Z,54.50
2022-08-19T03:31:45.588Z,51.30
2022-08-19T03:34:20.962Z,51.58
2022-08-19T03:36:48.660Z,52.13
2022-08-19T03:39:16.670Z,54.47
2022-08-19T03:41:46.446Z,48.00
2022-08-19T03:44:19.108Z,49.17
2022-08-19T03:46:48.900Z,51.63
2022-08-19T03:49:16.038Z,48.88
2022-08-19T03:51:44.966Z,55.35
2022-08-19T03:54:14.390Z,51.15
2022-08-19T03:56:43.029Z,49.55
2022-08-19T03:59:12.651Z,49.63
2022-08-19T04:01:39.384Z,51.40
2022-08-19T04:04:06.589Z,50.63
2022-08-19T04:06:36.264Z,52.65
2022-08-19T04:09:10.427Z,48.65
2022-08-19T04:11:47.595Z,46.05
2022-08-19T04:14:17.890Z,53.38
2022-08-19T04:16:45.868Z,45.60
2022-08-19T04:21:39.084Z,51.55
2022-08-19T04:24:06.379Z,39.95
2022-08-19T04:26:37.135Z,46.13
2022-08-19T04:29:12.306Z,44.83
2022-08-19T04:31:41.840Z,50.88
2022-08-19T04:34:13.926Z,56.67
2022-08-19T04:36:42.342Z,55.20
2022-08-19T04:39:17.976Z,56.92
2022-08-19T04:42:04.276Z,44.75
2022-08-19T04:44:33.515Z,50.80
2022-08-19T04:47:11.389Z,51.25
2022-08-19T04:49:38.396Z,55.60
2022-08-19T04:52:05.076Z,48.10
2022-08-19T04:54:38.879Z,51.22
2022-08-19T04:57:09.574Z,48.85
2022-08-19T04:59:38.060Z,44.33
2022-08-19T05:02:05.380Z,52.85
2022-08-19T05:04:33.147Z,49.95
2022-08-19T05:09:52.594Z,45.30
2022-08-19T05:12:16.555Z,51.58
2022-08-19T05:14:44.279Z,41.50
2022-08-19T05:17:27.084Z,44.92
2022-08-19T05:20:14.277Z,49.10
2022-08-19T05:22:42.080Z,40.72
2022-08-19T05:25:13.812Z,42.05
2022-08-19T05:27:42.349Z,39.63
2022-08-19T05:30:10.659Z,44.65
2022-08-19T05:32:38.182Z,37.53
2022-08-19T05:35:05.705Z,46.20
2022-08-19T05:37:32.559Z,41.80
2022-08-19T05:39:59.422Z,43.33
2022-08-19T05:42:27.512Z,48.28
2022-08-19T05:44:54.513Z,51.35
2022-08-19T05:47:21.426Z,70.03
2022-08-19T05:49:50.876Z,50.15
2022-08-19T05:52:19.627Z,46.60
2022-08-19T05:54:55.756Z,42.85
2022-08-19T05:57:23.909Z,42.33
2022-08-19T05:59:57.876Z,45.55
2022-08-19T06:02:29.704Z,41.67
2022-08-19T06:04:56.462Z,37.50
2022-08-19T06:07:23.319Z,36.08
2022-08-19T06:09:59.101Z,35.80
2022-08-19T06:12:31.593Z,36.97
2022-08-19T06:15:01.153Z,40.47
2022-08-19T06:17:31.453Z,35.42
2022-08-19T06:19:59.457Z,41.35
2022-08-19T06:22:26.934Z,37.83
2022-08-19T06:24:54.917Z,32.90
2022-08-19T06:27:22.620Z,34.28
2022-08-19T06:29:49.885Z,35.05
2022-08-19T06:32:19.140Z,34.97
2022-08-19T06:34:45.938Z,30.15
2022-08-19T06:37:13.026Z,27.48
2022-08-19T06:39:42.727Z,31.13
2022-08-19T06:42:12.432Z,32.17
2022-08-19T06:44:43.029Z,27.80
2022-08-19T06:47:14.885Z,30.95
2022-08-19T06:49:50.275Z,28.75
2022-08-19T06:52:18.479Z,26.33
2022-08-19T06:54:55.435Z,25.75
2022-08-19T06:57:25.233Z,27.83
2022-08-19T06:59:52.475Z,31.17
2022-08-19T07:02:20.206Z,28.33
2022-08-19T07:04:47.073Z,27.98
2022-08-19T07:07:20.270Z,27.27
2022-08-19T07:09:57.955Z,29.27
2022-08-19T07:12:25.411Z,27.58
2022-08-19T07:17:21.805Z,30.73
2022-08-19T07:19:48.650Z,35.35
2022-08-19T07:22:15.930Z,30.08
2022-08-19T07:24:51.245Z,27.38
2022-08-19T07:27:18.500Z,29.38
2022-08-19T07:29:55.978Z,32.97
2022-08-19T07:32:26.903Z,31.45
2022-08-19T07:34:53.656Z,29.13
2022-08-19T07:37:20.324Z,29.52
2022-08-19T07:39:47.043Z,26.05
2022-08-19T07:42:14.693Z,28.10
2022-08-19T07:44:42.248Z,23.58
2022-08-19T07:47:49.995Z,22.10
2022-08-19T07:50:08.894Z,26.25
2022-08-19T07:52:37.241Z,28.92
2022-08-19T07:55:05.814Z,23.55
2022-08-19T07:57:32.584Z,26.70
2022-08-19T08:00:00.006Z,27.35
2022-08-19T08:02:26.789Z,25.33
2022-08-19T08:05:12.083Z,22.27
2022-08-19T08:07:58.382Z,27.77
2022-08-19T08:10:26.099Z,23.17
2022-08-19T08:13:10.161Z,25.25
2022-08-19T08:15:42.604Z,21.35
2022-08-19T08:18:10.563Z,25.65
2022-08-19T08:20:37.230Z,27.75
2022-08-19T08:23:22.720Z,22.30
2022-08-19T08:25:50.249Z,28.40
2022-08-19T08:28:18.235Z,21.23
2022-08-19T08:30:46.793Z,19.58
2022-08-19T08:35:43.262Z,18.55
2022-08-19T08:38:10.309Z,17.65
2022-08-19T08:40:42.706Z,22.67
2022-08-19T08:43:32.963Z,19.48
2022-08-19T08:46:31.170Z,22.05
2022-08-19T08:49:12.999Z,17.10
2022-08-19T08:51:56.220Z,22.67
2022-08-19T08:54:40.282Z,15.77
2022-08-19T08:57:20.907Z,16.55
2022-08-19T08:59:52.731Z,16.60
2022-08-19T09:02:19.836Z,19.73
2022-08-19T09:04:47.026Z,18.10
2022-08-19T09:07:47.485Z,16.40
2022-08-19T09:10:35.578Z,14.95
2022-08-19T09:13:26.310Z,15.88
2022-08-19T09:16:04.254Z,18.42
2022-08-19T09:18:41.931Z,16.48
2022-08-19T09:23:37.926Z,17.48
2022-08-19T09:26:10.928Z,12.55
2022-08-19T09:28:38.511Z,18.27
2022-08-19T09:31:05.894Z,14.50
2022-08-19T09:33:32.560Z,17.48
2022-08-19T09:36:08.526Z,19.35
2022-08-19T09:38:37.099Z,14.57
2022-08-19T09:41:14.608Z,12.73
2022-08-19T09:43:47.784Z,13.35
2022-08-19T09:46:18.364Z,13.07
2022-08-19T09:48:49.330Z,16.60
2022-08-19T09:51:18.658Z,15.15
2022-08-19T09:53:54.907Z,11.70
2022-08-19T09:56:23.877Z,12.98
2022-08-19T09:58:52.057Z,14.93
2022-08-19T10:01:22.310Z,10.50
2022-08-19T10:03:55.391Z,13.27
2022-08-19T10:06:46.445Z,11.20
2022-08-19T10:09:12.159Z,15.23
2022-08-19T10:11:49.850Z,14.82
2022-08-19T10:14:23.581Z,15.07
2022-08-19T10:16:52.768Z,13.35
2022-08-19T10:19:25.798Z,12.32
2022-08-19T10:21:54.309Z,13.32
2022-08-19T10:24:28.661Z,12.75
2022-08-19T10:26:59.133Z,13.68
2022-08-19T10:29:32.273Z,17.23
2022-08-19T10:32:09.659Z,16.15
2022-08-19T10:34:48.898Z,16.15
2022-08-19T10:37:23.730Z,16.95
2022-08-19T10:39:56.173Z,14.68
2022-08-19T10:42:22.955Z,15.87
2022-08-19T10:44:49.633Z,13.75
2022-08-19T10:47:25.597Z,14.13
2022-08-19T10:50:15.462Z,14.82
2022-08-19T10:52:50.396Z,15.10
2022-08-19T10:55:41.581Z,17.23
2022-08-19T10:58:17.766Z,15.88
2022-08-19T11:00:51.779Z,15.55
2022-08-19T11:03:19.600Z,10.68
2022-08-19T11:05:46.230Z,12.73
2022-08-19T11:08:23.809Z,12.43
2022-08-19T11:11:01.647Z,9.95
2022-08-19T11:16:06.574Z,11.80
2022-08-19T11:18:39.498Z,11.02
2022-08-19T11:21:28.443Z,8.95
2022-08-19T11:23:58.363Z,11.52
2022-08-19T11:26:26.459Z,12.57
2022-08-19T11:28:55.448Z,8.50
2022-08-19T11:31:28.957Z,10.82
2022-08-19T11:34:01.163Z,9.15
2022-08-19T11:36:28.633Z,15.07
2022-08-19T11:38:55.693Z,15.57
2022-08-19T11:41:24.350Z,13.55
2022-08-19T11:43:53.963Z,13.95
2022-08-19T11:46:21.879Z,12.93
2022-08-19T11:48:50.680Z,9.52
2022-08-19T11:51:23.218Z,13.30
2022-08-19T11:53:51.370Z,12.00
2022-08-19T11:56:19.750Z,12.35
2022-08-19T11:58:46.788Z,14.70
2022-08-19T12:01:16.936Z,10.80
2022-08-19T12:03:45.894Z,17.80
2022-08-19T12:06:16.200Z,12.73
2022-08-19T12:08:44.449Z,11.95
2022-08-19T12:11:13.515Z,15.15
2022-08-19T12:13:40.923Z,17.85
2022-08-19T12:16:17.149Z,13.32
2022-08-19T12:18:47.614Z,9.95
2022-08-19T12:21:15.451Z,10.45
2022-08-19T12:23:43.120Z,13.65
2022-08-19T12:28:38.793Z,12.80
2022-08-19T12:33:33.059Z,15.48
2022-08-19T12:36:07.783Z,16.08
2022-08-19T12:38:35.569Z,13.52
2022-08-19T12:43:31.305Z,16.95
2022-08-19T12:45:58.212Z,15.13
2022-08-19T12:48:33.420Z,13.30
2022-08-19T12:51:06.381Z,12.18
2022-08-19T12:53:33.050Z,14.00
2022-08-19T12:56:01.397Z,13.05
2022-08-19T12:58:29.947Z,13.90
2022-08-19T13:00:56.698Z,9.02
2022-08-19T13:03:28.396Z,8.32
2022-08-19T13:05:55.029Z,8.23
2022-08-19T13:08:21.722Z,11.52
2022-08-19T13:10:48.355Z,10.50
2022-08-19T13:13:15.056Z,10.82
2022-08-19T13:15:43.730Z,8.18
2022-08-19T13:18:11.851Z,5.80
2022-08-19T13:20:41.608Z,4.70
2022-08-19T13:23:09.363Z,7.18
2022-08-19T13:28:05.224Z,10.38
2022-08-19T13:30:50.191Z,4.30
2022-08-19T13:33:17.865Z,4.78
2022-08-19T13:38:14.761Z,3.30
2022-08-19T13:40:42.397Z,2.90
2022-08-19T13:45:51.286Z,4.05
2022-08-19T13:48:19.261Z,4.35
2022-08-19T13:50:48.229Z,3.63
2022-08-19T13:53:15.208Z,3.63
2022-08-19T13:55:43.727Z,2.63
2022-08-19T13:58:11.692Z,2.63
2022-08-19T14:00:43.906Z,5.57
2022-08-19T14:03:10.664Z,3.22
2022-08-19T14:05:37.767Z,5.55
2022-08-19T14:08:04.763Z,2.55
2022-08-19T14:10:32.595Z,1.80
2022-08-19T14:13:01.735Z,2.75
2022-08-19T14:15:29.327Z,3.13
2022-08-19T14:17:56.366Z,1.75
2022-08-19T14:20:25.784Z,5.90
2022-08-19T14:22:53.839Z,4.10
2022-08-19T14:25:23.679Z,3.10
2022-08-19T14:27:50.693Z,2.80
2022-08-19T14:30:26.472Z,2.15
2022-08-19T14:32:53.511Z,3.47
2022-08-19T14:35:20.181Z,5.43
2022-08-19T14:37:47.388Z,2.30
2022-08-19T14:40:17.201Z,1.33
2022-08-19T14:42:44.394Z,4.65
2022-08-19T14:45:12.610Z,1.77
2022-08-19T14:47:40.914Z,1.42
2022-08-19T14:50:17.745Z,2.90
2022-08-19T14:52:44.743Z,1.92
2022-08-19T14:55:11.464Z,1.83
2022-08-19T14:57:38.093Z,1.53
2022-08-19T15:00:05.493Z,3.50
2022-08-19T15:02:33.798Z,3.00
2022-08-19T15:05:02.804Z,1.45
2022-08-19T15:07:30.320Z,4.93
2022-08-19T15:12:24.987Z,3.38
2022-08-19T15:14:52.984Z,2.67
2022-08-19T15:17:43.739Z,0.88
2022-08-19T15:20:13.618Z,2.38
2022-08-19T15:22:40.950Z,3.40
2022-08-19T15:25:11.743Z,2.33
2022-08-19T15:27:40.652Z,1.67
2022-08-19T15:30:09.468Z,5.97
2022-08-19T15:32:37.279Z,3.72
2022-08-19T15:35:06.774Z,2.78
2022-08-19T15:37:34.501Z,3.78
2022-08-19T15:40:07.531Z,4.13
2022-08-19T15:42:37.516Z,5.45
2022-08-19T15:45:06.052Z,4.70
2022-08-19T15:47:35.151Z,4.93
2022-08-19T15:50:14.979Z,5.35
2022-08-19T15:52:50.650Z,1.25
2022-08-19T15:55:33.323Z,3.30
2022-08-19T15:58:28.447Z,2.10
2022-08-19T16:01:20.874Z,2.83
2022-08-19T16:04:13.867Z,3.85
2022-08-19T16:06:48.476Z,1.58
2022-08-19T16:09:17.158Z,0.30
2022-08-19T16:11:46.477Z,0.40
2022-08-19T16:14:18.530Z,0.40
2022-08-19T16:16:47.301Z,1.88
2022-08-19T16:19:17.247Z,0.65
2022-08-19T16:21:50.511Z,2.50
2022-08-19T16:24:19.423Z,0.80
2022-08-19T16:26:46.592Z,2.25
2022-08-19T16:29:15.055Z,1.75
2022-08-19T16:31:55.993Z,0.65
2022-08-19T16:34:24.543Z,1.48
2022-08-19T16:36:51.529Z,2.78
2022-08-19T16:39:18.436Z,0.77
2022-08-19T16:41:46.135Z,1.30
2022-08-19T16:44:15.437Z,2.70
2022-08-19T16:46:42.472Z,1.95
2022-08-19T16:49:11.399Z,2.40
2022-08-19T16:51:39.672Z,1.90
2022-08-19T16:54:06.924Z,0.98
2022-08-19T16:56:34.559Z,2.50
2022-08-19T16:59:01.817Z,1.58
2022-08-19T17:01:28.908Z,1.77
2022-08-19T17:03:56.670Z,1.40
2022-08-19T17:08:55.431Z,1.30
2022-08-19T17:11:24.378Z,2.13
2022-08-19T17:13:51.441Z,3.17
2022-08-19T17:16:24.968Z,1.85
2022-08-19T17:18:53.281Z,2.17
2022-08-19T17:21:21.682Z,2.85
2022-08-19T17:23:49.072Z,1.70
2022-08-19T17:26:18.441Z,4.32
2022-08-19T17:28:49.633Z,2.38
2022-08-19T17:31:18.504Z,1.63
2022-08-19T17:33:48.232Z,1.90
2022-08-19T17:36:23.548Z,4.28
2022-08-19T17:38:51.962Z,4.57
2022-08-19T17:41:19.067Z,9.43
2022-08-19T17:43:45.759Z,5.28
2022-08-19T17:46:20.473Z,2.55
2022-08-19T17:48:57.633Z,3.58
2022-08-19T17:51:33.325Z,2.25
2022-08-19T17:54:00.570Z,1.33
2022-08-19T17:56:28.777Z,3.53
2022-08-19T17:58:59.884Z,2.75
2022-08-19T18:01:30.042Z,3.38
2022-08-19T18:04:07.418Z,2.25
2022-08-19T18:09:05.563Z,3.53
2022-08-19T18:11:32.920Z,2.45
2022-08-19T18:14:00.362Z,2.70
2022-08-19T18:16:26.999Z,4.50
2022-08-19T18:18:54.784Z,3.38
2022-08-19T18:23:48.844Z,1.85
2022-08-19T18:26:15.733Z,2.33
2022-08-19T18:28:50.019Z,2.37
2022-08-19T18:31:17.315Z,1.50
2022-08-19T18:33:45.223Z,3.92
2022-08-19T18:36:12.231Z,3.67
2022-08-19T18:38:57.126Z,4.40
2022-08-19T18:41:43.511Z,3.40
2022-08-19T18:44:29.058Z,20.83
2022-08-19T18:47:14.755Z,3.08
2022-08-19T18:49:41.428Z,4.60
2022-08-19T18:52:08.114Z,5.43
2022-08-19T18:54:35.705Z,2.83
2022-08-19T18:57:03.336Z,6.38
2022-08-19T18:59:30.371Z,6.35
2022-08-19T19:01:59.188Z,4.07
2022-08-19T19:04:35.804Z,1.80
2022-08-19T19:07:03.366Z,5.53
2022-08-19T19:09:30.064Z,4.63
2022-08-19T19:11:59.904Z,5.15
2022-08-19T19:14:48.219Z,5.10
2022-08-19T19:17:15.940Z,4.43
2022-08-19T19:19:43.998Z,6.90
2022-08-19T19:22:18.810Z,4.68
2022-08-19T19:24:45.967Z,6.72
2022-08-19T19:27:14.591Z,5.75
2022-08-19T19:29:42.536Z,9.23
2022-08-19T19:32:16.573Z,4.57
2022-08-19T19:34:43.296Z,5.55
2022-08-19T19:37:10.922Z,8.05
2022-08-19T19:39:46.446Z,7.25
2022-08-19T19:42:20.037Z,6.55
2022-08-19T19:44:50.220Z,7.53
2022-08-19T19:47:18.985Z,7.25
2022-08-19T19:50:12.714Z,7.45
2022-08-19T19:52:34.310Z,12.55
2022-08-19T19:55:01.526Z,10.02
2022-08-19T19:57:30.394Z,8.60
2022-08-19T19:59:57.116Z,12.07
2022-08-19T20:02:25.173Z,7.65
2022-08-19T20:04:52.200Z,6.75
2022-08-19T20:07:39.030Z,8.30
2022-08-19T20:10:05.938Z,9.88
2022-08-19T20:12:32.604Z,9.67
2022-08-19T20:14:59.278Z,11.85
2022-08-19T20:19:53.762Z,62.42
2022-08-19T20:22:20.428Z,43.13
2022-08-19T20:24:48.400Z,18.95
2022-08-19T20:27:15.032Z,102.97
2022-08-19T20:29:44.438Z,13.40
2022-08-19T20:32:12.500Z,15.38
2022-08-19T20:34:40.902Z,10.95
2022-08-19T20:37:11.279Z,10.52
2022-08-19T20:39:38.188Z,10.63
2022-08-19T20:42:05.356Z,11.60
2022-08-19T20:44:32.607Z,12.68
2022-08-19T20:47:03.361Z,13.35
2022-08-19T20:49:30.560Z,11.57
2022-08-19T20:51:58.444Z,17.67
2022-08-19T20:54:26.095Z,14.98
2022-08-19T20:56:53.061Z,8.65
2022-08-19T20:59:20.733Z,9.57
2022-08-19T21:01:48.812Z,31.90
2022-08-19T21:04:15.498Z,22.10
2022-08-19T21:06:45.266Z,18.30
2022-08-19T21:09:13.742Z,14.35
2022-08-19T21:11:40.563Z,14.07
2022-08-19T21:14:07.990Z,11.35
2022-08-19T21:16:34.684Z,14.50
2022-08-19T21:19:02.054Z,9.30
2022-08-19T21:21:28.955Z,6.53
2022-08-19T21:23:55.644Z,8.20
2022-08-19T21:26:22.438Z,10.52
2022-08-19T21:28:49.059Z,6.57
2022-08-19T21:31:17.809Z,8.32
2022-08-19T21:33:44.945Z,10.07
2022-08-19T21:36:11.654Z,23.83
2022-08-19T21:38:38.456Z,10.60
2022-08-19T21:41:06.562Z,11.15
2022-08-19T21:43:37.016Z,11.15
2022-08-19T21:46:04.545Z,11.68
2022-08-19T21:48:31.214Z,12.90
2022-08-19T21:50:57.852Z,11.90
2022-08-19T21:53:24.505Z,12.57
2022-08-19T21:55:53.762Z,15.23
2022-08-19T21:58:30.146Z,11.55
2022-08-19T22:00:59.253Z,9.03
2022-08-19T22:03:26.818Z,12.48
2022-08-19T22:05:53.671Z,13.85
2022-08-19T22:08:20.416Z,10.57
2022-08-19T22:10:47.102Z,11.57
2022-08-19T22:13:14.617Z,13.63
2022-08-19T22:15:42.442Z,8.73
2022-08-19T22:20:36.674Z,13.23
2022-08-19T22:23:07.132Z,11.80
2022-08-19T22:25:36.896Z,12.25
2022-08-19T22:28:06.973Z,10.13
2022-08-19T22:30:39.088Z,11.10
2022-08-19T22:33:12.492Z,14.32
2022-08-19T22:35:41.259Z,12.77
2022-08-19T22:38:10.835Z,10.82
2022-08-19T22:40:40.755Z,10.52
2022-08-19T22:43:14.972Z,15.15
2022-08-19T22:45:42.799Z,12.48
2022-08-19T22:50:39.074Z,13.10
2022-08-19T22:53:09.418Z,12.13
2022-08-19T22:55:39.393Z,10.73
2022-08-19T22:58:06.344Z,11.68
2022-08-19T23:00:33.848Z,10.17
2022-08-19T23:03:02.095Z,11.68
2022-08-19T23:05:29.539Z,8.93
2022-08-19T23:07:58.085Z,8.57
2022-08-19T23:10:27.998Z,10.55
2022-08-19T23:12:57.959Z,11.13
2022-08-19T23:15:28.049Z,13.55
2022-08-19T23:18:00.903Z,9.63
2022-08-19T23:20:32.931Z,13.18
2022-08-19T23:23:03.322Z,13.10
2022-08-19T23:25:32.852Z,13.80
2022-08-19T23:28:18.087Z,13.68
2022-08-19T23:30:47.342Z,11.93
2022-08-19T23:33:24.234Z,10.80
2022-08-19T23:35:59.151Z,14.27
2022-08-19T23:38:28.109Z,9.02
2022-08-19T23:40:59.750Z,13.15
2022-08-19T23:43:29.664Z,9.73
2022-08-19T23:46:01.980Z,8.77
2022-08-19T23:48:37.430Z,7.40
2022-08-19T23:51:07.830Z,8.63
2022-08-19T23:53:35.829Z,7.15
2022-08-19T23:56:02.619Z,8.57
2022-08-19T23:58:30.125Z,8.50
